createdAt,value
2023-02-26T04:00:29.640Z,2.30
2023-02-26T04:03:02.349Z,2.30
2023-02-26T04:05:34.250Z,2.30
2023-02-26T04:08:03.195Z,2.30
2023-02-26T04:10:37.424Z,2.30
2023-02-26T04:13:05.314Z,2.30
2023-02-26T04:15:34.531Z,2.20
2023-02-26T04:18:02.453Z,2.20
2023-02-26T04:20:31.676Z,2.10
2023-02-26T04:22:59.514Z,2.10
2023-02-26T04:25:27.463Z,2.10
2023-02-26T04:27:57.780Z,2.10
2023-02-26T04:30:25.936Z,2.10
2023-02-26T04:32:55.569Z,2.10
2023-02-26T04:35:23.452Z,2.00
2023-02-26T04:37:51.610Z,2.00
2023-02-26T04:40:19.858Z,2.00
2023-02-26T04:42:47.859Z,2.00
2023-02-26T04:45:21.764Z,1.90
2023-02-26T04:47:49.598Z,1.80
2023-02-26T04:50:19.017Z,1.90
2023-02-26T04:52:50.438Z,2.00
2023-02-26T04:55:19.753Z,2.00
2023-02-26T04:57:47.672Z,1.90
2023-02-26T05:00:17.225Z,2.00
2023-02-26T05:02:45.175Z,1.90
2023-02-26T05:05:13.075Z,1.90
2023-02-26T05:07:42.353Z,1.90
2023-02-26T05:10:11.698Z,1.80
2023-02-26T05:12:39.608Z,1.90
2023-02-26T05:15:08.574Z,1.90
2023-02-26T05:17:37.131Z,1.90
2023-02-26T05:20:10.021Z,1.90
2023-02-26T05:22:38.475Z,1.90
2023-02-26T05:25:08.681Z,1.90
2023-02-26T05:27:36.612Z,1.90
2023-02-26T05:30:05.041Z,2.00
2023-02-26T05:32:34.122Z,1.90
2023-02-26T05:35:02.235Z,2.00
2023-02-26T05:37:30.157Z,2.00
2023-02-26T05:39:58.030Z,1.90
2023-02-26T05:42:27.300Z,1.80
2023-02-26T05:44:55.100Z,1.90
2023-02-26T05:47:22.946Z,1.90
2023-02-26T05:49:51.064Z,1.80
2023-02-26T05:52:18.889Z,1.90
2023-02-26T05:54:47.125Z,1.90
2023-02-26T05:57:14.979Z,1.90
2023-02-26T05:59:44.165Z,1.90
2023-02-26T06:02:12.041Z,1.80
2023-02-26T06:04:39.948Z,1.80
2023-02-26T06:07:07.803Z,1.80
2023-02-26T06:09:35.613Z,1.80
2023-02-26T06:12:03.587Z,1.80
2023-02-26T06:14:32.508Z,1.80
2023-02-26T06:17:01.702Z,1.80
2023-02-26T06:19:29.487Z,1.90
2023-02-26T06:21:57.343Z,1.80
2023-02-26T06:24:25.239Z,1.90
2023-02-26T06:26:55.146Z,1.80
2023-02-26T06:29:23.510Z,1.80
2023-02-26T06:31:51.487Z,1.80
2023-02-26T06:34:22.093Z,1.80
2023-02-26T06:36:49.905Z,1.80
2023-02-26T06:39:19.080Z,1.80
2023-02-26T06:41:47.014Z,1.80
2023-02-26T06:44:16.234Z,1.70
2023-02-26T06:46:44.055Z,1.70
2023-02-26T06:49:11.862Z,1.70
2023-02-26T06:51:41.401Z,1.70
2023-02-26T06:54:09.375Z,1.90
2023-02-26T06:56:37.236Z,1.90
2023-02-26T06:59:05.102Z,1.90
2023-02-26T07:01:34.003Z,1.90
2023-02-26T07:04:01.817Z,1.80
2023-02-26T07:06:29.612Z,1.80
2023-02-26T07:08:58.895Z,1.80
2023-02-26T07:11:27.208Z,1.80
2023-02-26T07:13:55.050Z,1.80
2023-02-26T07:16:23.045Z,1.90
2023-02-26T07:18:50.946Z,2.00
2023-02-26T07:21:19.798Z,2.00
2023-02-26T07:23:47.639Z,2.10
2023-02-26T07:26:17.502Z,2.00
2023-02-26T07:28:45.392Z,2.10
2023-02-26T07:31:13.302Z,2.10
2023-02-26T07:33:41.165Z,2.10
2023-02-26T07:36:09.123Z,2.10
2023-02-26T07:38:37.020Z,2.10
2023-02-26T07:41:05.154Z,2.10
2023-02-26T07:43:34.456Z,2.10
2023-02-26T07:46:02.426Z,2.00
2023-02-26T07:48:30.339Z,2.00
2023-02-26T07:50:58.374Z,2.00
2023-02-26T07:53:26.267Z,1.90
2023-02-26T07:55:54.095Z,1.90
2023-02-26T07:58:21.928Z,1.90
2023-02-26T08:00:52.694Z,1.90
2023-02-26T08:03:20.667Z,2.00
2023-02-26T08:05:48.579Z,2.00
2023-02-26T08:08:16.488Z,2.10
2023-02-26T08:10:45.317Z,2.20
2023-02-26T08:13:13.149Z,2.20
2023-02-26T08:15:43.828Z,2.30
2023-02-26T08:18:13.239Z,2.30
2023-02-26T08:20:41.026Z,2.30
2023-02-26T08:23:08.871Z,2.30
2023-02-26T08:25:36.766Z,2.30
2023-02-26T08:28:04.658Z,2.40
2023-02-26T08:30:32.454Z,2.40
2023-02-26T08:33:00.290Z,2.50
2023-02-26T08:35:29.554Z,2.60
2023-02-26T08:37:57.396Z,2.70
2023-02-26T08:40:25.276Z,2.60
2023-02-26T08:42:53.104Z,2.60
2023-02-26T08:45:21.209Z,2.60
2023-02-26T08:47:56.794Z,2.70
2023-02-26T08:50:25.677Z,2.70
2023-02-26T08:52:55.214Z,2.80
2023-02-26T08:55:24.038Z,2.90
2023-02-26T08:57:51.949Z,2.90
2023-02-26T09:00:20.599Z,3.00
2023-02-26T09:02:48.617Z,2.90
2023-02-26T09:05:16.850Z,2.80
2023-02-26T09:07:45.176Z,2.90
2023-02-26T09:10:15.943Z,2.90
2023-02-26T09:12:44.291Z,3.00
2023-02-26T09:15:14.314Z,3.00
2023-02-26T09:17:42.743Z,3.10
2023-02-26T09:20:11.760Z,3.10
2023-02-26T09:22:39.568Z,3.10
2023-02-26T09:25:08.826Z,3.10
2023-02-26T09:27:37.985Z,3.20
2023-02-26T09:30:07.657Z,3.20
2023-02-26T09:32:35.639Z,3.20
2023-02-26T09:35:04.477Z,3.30
2023-02-26T09:37:32.828Z,3.40
2023-02-26T09:40:00.724Z,3.50
2023-02-26T09:42:40.668Z,3.50
2023-02-26T09:45:14.889Z,3.50
2023-02-26T09:47:51.694Z,3.40
2023-02-26T09:50:24.095Z,3.40
2023-02-26T09:52:56.201Z,3.50
2023-02-26T09:55:29.783Z,3.50
2023-02-26T09:58:03.200Z,3.70
2023-02-26T10:00:35.318Z,3.80
2023-02-26T10:03:18.159Z,4.00
2023-02-26T10:05:58.753Z,3.90
2023-02-26T10:08:37.853Z,3.90
2023-02-26T10:11:12.850Z,4.10
2023-02-26T10:13:57.220Z,4.20
2023-02-26T10:16:32.208Z,4.40
2023-02-26T10:19:04.949Z,4.40
2023-02-26T10:21:40.100Z,4.30
2023-02-26T10:24:14.881Z,4.40
2023-02-26T10:26:46.622Z,4.50
2023-02-26T10:29:23.510Z,4.40
2023-02-26T10:32:04.134Z,4.40
2023-02-26T10:34:37.211Z,4.50
2023-02-26T10:37:17.585Z,4.40
2023-02-26T10:39:50.429Z,4.50
2023-02-26T10:42:24.403Z,4.50
2023-02-26T10:45:08.861Z,4.70
2023-02-26T10:47:46.522Z,4.90
2023-02-26T10:50:18.691Z,5.10
2023-02-26T10:52:51.480Z,5.00
2023-02-26T10:55:39.170Z,5.00
2023-02-26T10:58:11.094Z,5.00
2023-02-26T11:00:41.842Z,5.00
2023-02-26T11:03:15.925Z,4.90
2023-02-26T11:05:44.354Z,4.90
2023-02-26T11:08:16.751Z,4.90
2023-02-26T11:10:54.502Z,4.80
2023-02-26T11:13:24.163Z,4.90
2023-02-26T11:15:55.620Z,4.90
2023-02-26T11:18:27.885Z,5.00
2023-02-26T11:21:01.362Z,5.10
2023-02-26T11:23:32.738Z,5.10
2023-02-26T11:26:05.327Z,5.10
2023-02-26T11:28:36.932Z,5.10
2023-02-26T11:31:11.230Z,5.10
2023-02-26T11:33:41.432Z,5.10
2023-02-26T11:36:12.370Z,5.00
2023-02-26T11:38:41.001Z,5.10
2023-02-26T11:41:14.088Z,5.10
2023-02-26T11:43:45.297Z,5.10
2023-02-26T11:46:17.864Z,5.20
2023-02-26T11:48:49.366Z,5.30
2023-02-26T11:51:21.866Z,5.40
2023-02-26T11:53:53.823Z,5.50
2023-02-26T11:56:28.981Z,5.50
2023-02-26T11:59:09.010Z,5.50
2023-02-26T12:01:42.736Z,5.50
2023-02-26T12:04:13.464Z,5.50
2023-02-26T12:06:41.991Z,5.30
2023-02-26T12:09:14.301Z,5.40
2023-02-26T12:12:01.603Z,5.50
2023-02-26T12:15:19.778Z,5.50
2023-02-26T12:18:05.877Z,5.50
2023-02-26T12:20:44.064Z,5.60
2023-02-26T12:23:26.979Z,5.60
2023-02-26T12:26:28.126Z,5.70
2023-02-26T12:29:16.718Z,5.70
2023-02-26T12:32:22.457Z,5.70
2023-02-26T12:35:23.038Z,5.80
2023-02-26T12:38:00.150Z,5.90
2023-02-26T12:40:56.697Z,5.90
2023-02-26T12:43:35.656Z,6.00
2023-02-26T12:46:13.973Z,6.00
2023-02-26T12:49:12.994Z,6.00
2023-02-26T12:52:00.019Z,6.00
2023-02-26T12:54:45.591Z,6.00
2023-02-26T12:57:28.855Z,5.80
2023-02-26T13:00:18.059Z,5.60
2023-02-26T13:03:40.128Z,5.60
2023-02-26T13:06:38.805Z,5.70
2023-02-26T13:09:18.515Z,5.70
2023-02-26T13:12:02.858Z,5.70
2023-02-26T13:14:45.539Z,5.60
2023-02-26T13:17:21.690Z,5.60
2023-02-26T13:19:54.769Z,5.60
2023-02-26T13:22:28.075Z,5.60
2023-02-26T13:25:03.345Z,5.70
2023-02-26T13:27:36.059Z,5.70
2023-02-26T13:30:34.136Z,5.80
2023-02-26T13:33:02.990Z,5.90
2023-02-26T13:35:34.827Z,5.70
2023-02-26T13:38:06.700Z,5.60
2023-02-26T13:40:47.751Z,5.60
2023-02-26T13:43:35.099Z,5.60
2023-02-26T13:46:21.993Z,5.70
2023-02-26T13:49:02.554Z,5.60
2023-02-26T13:51:36.330Z,5.60
2023-02-26T13:54:08.911Z,5.60
2023-02-26T13:56:55.240Z,5.70
2023-02-26T13:59:48.472Z,5.70
2023-02-26T14:02:38.246Z,5.80
2023-02-26T14:05:29.223Z,5.80
2023-02-26T14:08:18.960Z,5.70
2023-02-26T14:10:48.213Z,5.60
2023-02-26T14:13:20.180Z,5.50
2023-02-26T14:15:54.371Z,5.50
2023-02-26T14:18:31.647Z,5.30
2023-02-26T14:21:36.381Z,5.30
2023-02-26T14:24:08.179Z,5.10
2023-02-26T14:26:38.784Z,5.20
2023-02-26T14:29:21.874Z,5.20
2023-02-26T14:32:15.055Z,5.40
2023-02-26T14:34:51.787Z,5.60
2023-02-26T14:37:23.815Z,5.70
2023-02-26T14:39:58.676Z,5.70
2023-02-26T14:42:35.483Z,5.80
2023-02-26T14:45:24.346Z,6.30
2023-02-26T14:47:52.453Z,7.20
2023-02-26T14:50:23.145Z,8.30
2023-02-26T14:53:12.048Z,8.80
2023-02-26T14:55:48.623Z,9.60
2023-02-26T14:58:33.983Z,9.80
2023-02-26T15:01:21.357Z,10.40
2023-02-26T15:04:21.055Z,10.60
2023-02-26T15:07:09.666Z,9.60
2023-02-26T15:09:58.115Z,8.80
2023-02-26T15:12:40.852Z,8.00
2023-02-26T15:15:33.412Z,7.40
2023-02-26T15:18:56.696Z,6.90
2023-02-26T15:21:35.947Z,6.50
2023-02-26T15:24:31.289Z,6.50
2023-02-26T15:27:02.807Z,6.60
2023-02-26T15:29:33.174Z,6.70
2023-02-26T15:32:15.448Z,6.70
2023-02-26T15:34:47.091Z,6.50
2023-02-26T15:37:22.906Z,6.20
2023-02-26T15:39:51.967Z,5.90
2023-02-26T15:42:22.299Z,5.70
2023-02-26T15:44:57.057Z,5.60
2023-02-26T15:47:25.607Z,5.70
2023-02-26T15:49:59.000Z,5.70
2023-02-26T15:52:29.790Z,5.80
2023-02-26T15:54:59.994Z,5.60
2023-02-26T15:57:39.310Z,5.50
2023-02-26T16:00:11.417Z,5.50
2023-02-26T16:02:45.479Z,5.50
2023-02-26T16:05:15.222Z,5.40
2023-02-26T16:07:46.948Z,5.30
2023-02-26T16:10:29.920Z,5.10
2023-02-26T16:13:01.663Z,5.00
2023-02-26T16:15:34.369Z,5.00
2023-02-26T16:18:10.789Z,5.10
2023-02-26T16:20:42.185Z,5.10
2023-02-26T16:23:16.470Z,5.00
2023-02-26T16:25:51.669Z,5.00
2023-02-26T16:28:23.130Z,4.90
2023-02-26T16:30:54.681Z,4.80
2023-02-26T16:33:24.451Z,4.70
2023-02-26T16:35:56.665Z,4.60
2023-02-26T16:38:28.798Z,4.50
2023-02-26T16:41:00.281Z,4.40
2023-02-26T16:43:43.505Z,4.40
2023-02-26T16:46:16.501Z,4.40
2023-02-26T16:48:49.123Z,4.40
2023-02-26T16:51:22.242Z,4.30
2023-02-26T16:53:58.037Z,4.30
2023-02-26T16:56:29.493Z,4.20
2023-02-26T16:59:06.188Z,4.20
2023-02-26T17:01:39.006Z,4.20
2023-02-26T17:04:08.511Z,4.20
2023-02-26T17:06:39.920Z,4.20
2023-02-26T17:09:25.327Z,4.20
2023-02-26T17:12:05.841Z,4.20
2023-02-26T17:14:40.414Z,4.20
2023-02-26T17:17:08.577Z,4.20
2023-02-26T17:19:36.654Z,4.20
2023-02-26T17:22:05.470Z,4.10
2023-02-26T17:24:36.810Z,4.10
2023-02-26T17:27:10.550Z,4.10
2023-02-26T17:29:40.585Z,4.00
2023-02-26T17:32:16.034Z,4.00
2023-02-26T17:34:44.621Z,4.00
2023-02-26T17:37:13.873Z,4.00
2023-02-26T17:39:43.792Z,4.00
2023-02-26T17:42:12.546Z,4.00
2023-02-26T17:44:40.804Z,4.00
2023-02-26T17:47:13.847Z,4.00
2023-02-26T17:49:41.836Z,4.10
2023-02-26T17:52:09.655Z,4.10
2023-02-26T17:54:37.545Z,4.00
2023-02-26T17:57:07.968Z,4.00
2023-02-26T17:59:35.876Z,4.00
2023-02-26T18:02:03.684Z,4.00
2023-02-26T18:04:31.609Z,3.90
2023-02-26T18:06:59.742Z,3.70
2023-02-26T18:09:27.589Z,3.70
2023-02-26T18:11:55.400Z,3.70
2023-02-26T18:14:24.564Z,3.70
2023-02-26T18:16:52.494Z,3.70
2023-02-26T18:19:20.372Z,3.70
2023-02-26T18:21:48.213Z,3.70
2023-02-26T18:24:16.047Z,3.60
2023-02-26T18:26:43.936Z,3.60
2023-02-26T18:29:12.643Z,3.70
2023-02-26T18:31:42.383Z,3.70
2023-02-26T18:34:10.264Z,3.70
2023-02-26T18:36:39.622Z,3.80
2023-02-26T18:39:11.525Z,3.80
2023-02-26T18:41:40.179Z,3.70
2023-02-26T18:44:08.120Z,3.70
2023-02-26T18:46:40.083Z,3.70
2023-02-26T18:49:17.340Z,3.70
2023-02-26T18:51:45.176Z,3.70
2023-02-26T18:54:13.000Z,3.80
2023-02-26T18:56:40.852Z,3.70
2023-02-26T18:59:11.058Z,3.80
2023-02-26T19:01:38.984Z,3.80
2023-02-26T19:04:07.510Z,3.70
2023-02-26T19:06:37.282Z,3.70
2023-02-26T19:09:05.808Z,3.70
2023-02-26T19:11:33.946Z,3.70
2023-02-26T19:14:02.100Z,3.70
2023-02-26T19:16:34.883Z,3.70
2023-02-26T19:19:05.158Z,3.70
2023-02-26T19:21:34.138Z,3.70
2023-02-26T19:24:04.911Z,3.70
2023-02-26T19:26:34.230Z,3.60
2023-02-26T19:29:02.479Z,3.70
2023-02-26T19:31:31.212Z,3.70
2023-02-26T19:33:59.455Z,3.70
2023-02-26T19:36:27.571Z,3.70
2023-02-26T19:38:55.434Z,3.80
2023-02-26T19:41:25.112Z,3.70
2023-02-26T19:43:53.333Z,3.70
2023-02-26T19:46:21.147Z,3.70
2023-02-26T19:48:48.937Z,3.80
2023-02-26T19:51:18.592Z,3.80
2023-02-26T19:53:46.513Z,3.70
2023-02-26T19:56:14.532Z,3.70
2023-02-26T19:58:43.923Z,3.70
2023-02-26T20:01:11.766Z,3.70
2023-02-26T20:03:39.625Z,3.70
2023-02-26T20:06:10.018Z,3.70
2023-02-26T20:08:37.840Z,3.70
2023-02-26T20:11:06.094Z,3.60
2023-02-26T20:13:34.940Z,3.60
2023-02-26T20:16:07.534Z,3.60
2023-02-26T20:18:36.131Z,3.60
2023-02-26T20:21:06.760Z,3.70
2023-02-26T20:23:36.973Z,3.60
2023-02-26T20:26:06.413Z,3.70
2023-02-26T20:28:34.259Z,3.70
2023-02-26T20:31:02.166Z,3.70
2023-02-26T20:33:33.085Z,3.70
2023-02-26T20:36:01.450Z,3.70
2023-02-26T20:38:29.423Z,3.60
2023-02-26T20:40:57.534Z,3.60
2023-02-26T20:43:26.348Z,3.60
2023-02-26T20:45:56.462Z,3.50
2023-02-26T20:48:24.464Z,3.50
2023-02-26T20:50:53.854Z,3.50
2023-02-26T20:53:22.329Z,3.40
2023-02-26T20:55:50.194Z,3.40
2023-02-26T20:58:18.446Z,3.40
2023-02-26T21:00:46.486Z,3.40
2023-02-26T21:03:14.358Z,3.40
2023-02-26T21:05:43.293Z,3.30
2023-02-26T21:08:13.397Z,3.30
2023-02-26T21:10:41.296Z,3.30
2023-02-26T21:13:10.001Z,3.30
2023-02-26T21:15:38.270Z,3.30
2023-02-26T21:18:06.210Z,3.20
2023-02-26T21:20:34.093Z,3.20
2023-02-26T21:23:01.972Z,3.20
2023-02-26T21:25:31.748Z,3.20
2023-02-26T21:27:59.934Z,3.20
2023-02-26T21:30:30.116Z,3.10
2023-02-26T21:32:58.068Z,3.10
2023-02-26T21:35:25.909Z,3.10
2023-02-26T21:37:54.559Z,3.10
2023-02-26T21:40:22.662Z,3.00
2023-02-26T21:42:51.826Z,3.00
2023-02-26T21:45:19.888Z,3.00
2023-02-26T21:47:47.740Z,3.00
2023-02-26T21:50:15.577Z,3.00
2023-02-26T21:52:43.471Z,3.00
2023-02-26T21:55:12.403Z,3.00
2023-02-26T21:57:40.220Z,3.00
2023-02-26T22:00:11.544Z,3.00
2023-02-26T22:02:44.101Z,3.00
2023-02-26T22:05:12.364Z,3.00
2023-02-26T22:07:40.715Z,3.00
2023-02-26T22:10:10.892Z,3.00
2023-02-26T22:12:38.769Z,2.90
2023-02-26T22:15:09.248Z,2.90
2023-02-26T22:17:37.183Z,2.90
2023-02-26T22:20:09.730Z,2.90
2023-02-26T22:22:38.083Z,2.90
2023-02-26T22:25:07.264Z,2.80
2023-02-26T22:27:35.566Z,2.80
2023-02-26T22:30:03.470Z,2.70
2023-02-26T22:32:32.911Z,2.70
2023-02-26T22:35:00.796Z,2.70
2023-02-26T22:37:28.646Z,2.70
2023-02-26T22:39:56.610Z,2.70
2023-02-26T22:42:24.543Z,2.70
2023-02-26T22:44:52.351Z,2.70
2023-02-26T22:47:20.203Z,2.80
2023-02-26T22:49:49.860Z,2.70
2023-02-26T22:52:17.655Z,2.70
2023-02-26T22:54:46.368Z,2.70
2023-02-26T22:57:14.691Z,2.70
2023-02-26T22:59:42.680Z,2.70
